createdAt,value
2018-07-21T00:01:53.421Z,27.63
2018-07-21T00:04:22.873Z,27.81
2018-07-21T00:06:52.197Z,27.93
2018-07-21T00:09:21.501Z,27.95
2018-07-21T00:11:50.742Z,27.91
2018-07-21T00:14:20.102Z,27.95
2018-07-21T00:16:49.358Z,27.98
2018-07-21T00:19:18.596Z,27.97
2018-07-21T00:21:48.060Z,27.96
2018-07-21T00:24:17.352Z,27.80
2018-07-21T00:26:48.811Z,27.76
2018-07-21T00:29:19.110Z,27.79
2018-07-21T00:31:48.522Z,27.66
2018-07-21T00:34:17.774Z,27.31
2018-07-21T00:36:47.247Z,27.45
2018-07-21T00:39:16.740Z,27.55
2018-07-21T00:41:46.105Z,27.51
2018-07-21T00:44:15.364Z,27.50
2018-07-21T00:46:44.733Z,27.37
2018-07-21T00:49:13.966Z,27.33
2018-07-21T00:51:43.209Z,27.41
2018-07-21T00:54:12.462Z,27.46
2018-07-21T00:56:41.870Z,27.50
2018-07-21T00:59:11.325Z,27.41
2018-07-21T01:01:40.819Z,27.41
2018-07-21T01:04:10.311Z,27.23
2018-07-21T01:06:39.706Z,27.04
2018-07-21T01:09:10.854Z,27.15
2018-07-21T01:11:40.491Z,27.24
2018-07-21T01:14:09.843Z,27.22
2018-07-21T01:16:39.228Z,27.06
2018-07-21T01:19:08.549Z,26.98
2018-07-21T01:21:37.803Z,26.98
2018-07-21T01:24:07.048Z,26.94
2018-07-21T01:26:36.360Z,27.11
2018-07-21T01:29:05.725Z,27.20
2018-07-21T01:31:35.161Z,27.04
2018-07-21T01:34:04.484Z,26.95
2018-07-21T01:36:33.730Z,26.98
2018-07-21T01:39:03.040Z,27.04
2018-07-21T01:41:32.309Z,26.99
2018-07-21T01:44:01.589Z,27.18
2018-07-21T01:46:30.918Z,27.30
2018-07-21T01:49:00.204Z,26.78
2018-07-21T01:51:29.636Z,26.62
2018-07-21T01:53:59.073Z,26.84
2018-07-21T01:56:28.321Z,26.91
2018-07-21T01:58:57.661Z,26.99
2018-07-21T02:01:27.308Z,26.64
2018-07-21T02:03:56.620Z,26.74
2018-07-21T02:06:26.051Z,25.94
2018-07-21T02:08:55.403Z,26.46
2018-07-21T02:11:24.641Z,26.70
2018-07-21T02:13:53.910Z,26.88
2018-07-21T02:16:23.290Z,27.00
2018-07-21T02:18:52.950Z,27.06
2018-07-21T02:21:22.274Z,27.11
2018-07-21T02:23:51.625Z,27.02
2018-07-21T02:26:20.968Z,26.90
2018-07-21T02:28:50.228Z,26.87
2018-07-21T02:31:19.723Z,26.77
2018-07-21T02:33:48.956Z,26.77
2018-07-21T02:36:18.247Z,26.78
2018-07-21T02:38:47.546Z,26.58
2018-07-21T02:41:16.870Z,26.21
2018-07-21T02:43:46.218Z,25.76
2018-07-21T02:46:15.458Z,25.42
2018-07-21T02:48:44.738Z,25.17
2018-07-21T02:51:14.065Z,25.22
2018-07-21T02:53:43.375Z,25.25
2018-07-21T02:56:12.645Z,25.46
2018-07-21T02:58:41.810Z,25.46
2018-07-21T03:01:11.074Z,24.89
2018-07-21T03:03:40.395Z,23.90
2018-07-21T03:06:09.704Z,24.08
2018-07-21T03:08:38.907Z,23.71
2018-07-21T03:11:08.158Z,23.93
2018-07-21T03:13:37.434Z,23.32
2018-07-21T03:16:06.748Z,23.22
2018-07-21T03:18:36.097Z,23.55
2018-07-21T03:21:05.451Z,23.50
2018-07-21T03:23:34.910Z,23.42
2018-07-21T03:26:04.877Z,23.80
2018-07-21T03:28:34.539Z,23.64
2018-07-21T03:31:03.887Z,23.74
2018-07-21T03:33:33.170Z,23.59
2018-07-21T03:36:02.409Z,23.43
2018-07-21T03:38:31.762Z,23.27
2018-07-21T03:41:01.018Z,23.46
2018-07-21T03:43:30.250Z,23.42
2018-07-21T03:45:59.250Z,23.34
2018-07-21T03:48:28.612Z,22.74
2018-07-21T03:50:57.848Z,22.91
2018-07-21T03:53:27.187Z,23.31
2018-07-21T03:55:56.445Z,23.34
2018-07-21T03:58:25.727Z,23.48
2018-07-21T04:00:55.225Z,23.27
2018-07-21T04:03:24.481Z,23.24
2018-07-21T04:05:53.838Z,23.14
2018-07-21T04:08:23.128Z,23.17
2018-07-21T04:10:52.335Z,23.25
2018-07-21T04:13:21.587Z,23.18
2018-07-21T04:15:50.910Z,23.28
2018-07-21T04:18:20.382Z,23.23
2018-07-21T04:20:49.778Z,23.22
2018-07-21T04:23:19.118Z,23.21
2018-07-21T04:25:48.406Z,23.39
2018-07-21T04:28:17.803Z,23.33
2018-07-21T04:30:47.002Z,23.39
2018-07-21T04:33:16.433Z,23.38
2018-07-21T04:35:46.216Z,23.31
2018-07-21T04:38:15.525Z,22.81
2018-07-21T04:40:44.890Z,22.79
2018-07-21T04:43:14.130Z,22.48
2018-07-21T04:45:43.499Z,22.40
2018-07-21T04:48:12.930Z,22.47
2018-07-21T04:50:42.292Z,22.35
2018-07-21T04:53:11.520Z,21.99
2018-07-21T04:55:40.753Z,21.73
2018-07-21T04:58:10.046Z,21.77
2018-07-21T05:00:39.587Z,21.61
2018-07-21T05:03:08.793Z,21.99
2018-07-21T05:05:37.968Z,22.18
2018-07-21T05:08:07.222Z,22.26
2018-07-21T05:10:36.477Z,22.17
2018-07-21T05:13:05.717Z,22.08
2018-07-21T05:15:34.966Z,21.96
2018-07-21T05:18:04.109Z,22.07
2018-07-21T05:20:33.386Z,22.23
2018-07-21T05:23:02.611Z,22.58
2018-07-21T05:25:31.969Z,22.43
2018-07-21T05:28:01.299Z,22.66
2018-07-21T05:30:30.479Z,22.36
2018-07-21T05:32:59.741Z,21.97
2018-07-21T05:35:28.974Z,21.83
2018-07-21T05:37:58.246Z,21.80
2018-07-21T05:40:27.569Z,21.91
2018-07-21T05:42:56.569Z,22.08
2018-07-21T05:45:25.478Z,22.32
2018-07-21T05:47:54.530Z,22.51
2018-07-21T05:50:23.478Z,22.54
2018-07-21T05:52:52.898Z,22.64
2018-07-21T05:55:22.165Z,22.64
2018-07-21T05:57:51.431Z,22.56
2018-07-21T06:00:20.702Z,22.73
2018-07-21T06:02:50.180Z,22.58
2018-07-21T06:05:19.450Z,22.33
2018-07-21T06:07:48.796Z,22.27
2018-07-21T06:10:18.106Z,22.41
2018-07-21T06:12:47.379Z,22.66
2018-07-21T06:15:16.569Z,22.87
2018-07-21T06:17:45.794Z,23.16
2018-07-21T06:20:15.071Z,23.31
2018-07-21T06:22:44.334Z,23.42
2018-07-21T06:25:13.820Z,23.44
2018-07-21T06:27:43.230Z,23.58
2018-07-21T06:30:12.465Z,23.51
2018-07-21T06:32:41.732Z,23.58
2018-07-21T06:35:10.953Z,23.28
2018-07-21T06:37:40.199Z,23.06
2018-07-21T06:40:09.442Z,23.28
2018-07-21T06:42:38.691Z,23.26
2018-07-21T06:45:07.905Z,23.33
2018-07-21T06:47:37.202Z,23.17
2018-07-21T06:50:07.689Z,23.10
2018-07-21T06:52:37.438Z,22.87
2018-07-21T06:55:07.018Z,23.27
2018-07-21T06:57:36.278Z,23.56
2018-07-21T07:00:06.025Z,23.76
2018-07-21T07:02:35.363Z,23.93
2018-07-21T07:05:04.630Z,24.06
2018-07-21T07:07:33.870Z,24.08
2018-07-21T07:10:03.196Z,24.09
2018-07-21T07:12:32.526Z,23.63
2018-07-21T07:15:01.961Z,23.35
2018-07-21T07:17:31.308Z,23.72
2018-07-21T07:20:00.650Z,24.32
2018-07-21T07:22:29.924Z,24.35
2018-07-21T07:24:59.192Z,24.37
2018-07-21T07:27:28.506Z,24.51
2018-07-21T07:29:57.801Z,24.19
2018-07-21T07:32:26.914Z,24.55
2018-07-21T07:34:55.905Z,24.34
2018-07-21T07:37:25.054Z,23.85
2018-07-21T07:39:54.330Z,23.51
2018-07-21T07:42:23.618Z,23.48
2018-07-21T07:44:52.945Z,23.94
2018-07-21T07:47:22.254Z,24.15
2018-07-21T07:49:51.443Z,24.22
2018-07-21T07:52:20.726Z,23.87
2018-07-21T07:54:50.388Z,23.62
2018-07-21T07:57:19.981Z,23.92
2018-07-21T07:59:50.089Z,23.95
2018-07-21T08:02:19.864Z,24.17
2018-07-21T08:04:49.647Z,23.35
2018-07-21T08:07:18.912Z,23.10
2018-07-21T08:09:48.221Z,22.96
2018-07-21T08:12:17.466Z,22.47
2018-07-21T08:14:46.726Z,22.75
2018-07-21T08:17:16.137Z,23.42
2018-07-21T08:19:45.670Z,23.57
2018-07-21T08:22:14.894Z,23.91
2018-07-21T08:24:44.221Z,23.84
2018-07-21T08:27:13.569Z,23.96
2018-07-21T08:29:42.839Z,24.17
2018-07-21T08:32:12.078Z,23.97
2018-07-21T08:34:41.402Z,23.84
2018-07-21T08:37:10.495Z,24.07
2018-07-21T08:39:39.730Z,24.41
2018-07-21T08:42:08.965Z,24.67
2018-07-21T08:44:38.209Z,24.53
2018-07-21T08:47:07.662Z,24.57
2018-07-21T08:49:37.021Z,25.01
2018-07-21T08:52:06.390Z,25.33
2018-07-21T08:54:35.718Z,25.35
2018-07-21T08:57:05.019Z,25.03
2018-07-21T08:59:34.358Z,24.91
2018-07-21T09:02:03.598Z,24.77
2018-07-21T09:04:32.940Z,24.69
2018-07-21T09:07:02.270Z,24.99
2018-07-21T09:09:31.646Z,25.12
2018-07-21T09:12:01.037Z,25.42
2018-07-21T09:14:30.435Z,25.37
2018-07-21T09:16:59.609Z,25.88
2018-07-21T09:19:29.074Z,26.21
2018-07-21T09:21:58.548Z,26.49
2018-07-21T09:24:27.851Z,26.63
2018-07-21T09:26:57.050Z,26.63
2018-07-21T09:29:26.471Z,26.87
2018-07-21T09:31:55.713Z,26.92
2018-07-21T09:34:24.962Z,26.82
2018-07-21T09:36:54.250Z,26.79
2018-07-21T09:39:23.545Z,26.81
2018-07-21T09:41:52.846Z,26.77
2018-07-21T09:44:22.157Z,26.96
2018-07-21T09:46:51.531Z,26.53
2018-07-21T09:49:20.883Z,26.39
2018-07-21T09:51:50.131Z,26.42
2018-07-21T09:54:19.474Z,26.21
2018-07-21T09:56:48.749Z,26.18
2018-07-21T09:59:18.173Z,26.29
2018-07-21T10:01:47.422Z,26.17
2018-07-21T10:04:16.741Z,26.51
2018-07-21T10:06:46.160Z,26.74
2018-07-21T10:09:15.470Z,27.04
2018-07-21T10:11:44.859Z,27.16
2018-07-21T10:14:14.060Z,27.09
2018-07-21T10:16:43.719Z,26.71
2018-07-21T10:19:13.077Z,26.95
2018-07-21T10:21:42.562Z,27.14
2018-07-21T10:24:16.947Z,27.43
2018-07-21T10:26:51.159Z,28.18
2018-07-21T10:29:20.518Z,28.54
2018-07-21T10:31:49.794Z,28.83
2018-07-21T10:34:19.334Z,28.73
2018-07-21T10:36:48.710Z,29.44
2018-07-21T10:39:18.042Z,28.94
2018-07-21T10:41:47.322Z,29.96
2018-07-21T10:44:16.717Z,29.17
2018-07-21T10:46:46.234Z,29.11
2018-07-21T10:49:15.500Z,30.16
2018-07-21T10:51:44.742Z,29.67
2018-07-21T10:54:14.087Z,30.29
2018-07-21T10:56:43.325Z,30.23
2018-07-21T10:59:12.685Z,29.28
2018-07-21T11:01:41.970Z,28.07
2018-07-21T11:04:12.158Z,28.81
2018-07-21T11:06:41.571Z,28.10
2018-07-21T11:09:11.689Z,26.73
2018-07-21T11:11:41.150Z,28.15
2018-07-21T11:14:10.343Z,29.21
2018-07-21T11:16:39.700Z,29.00
2018-07-21T11:19:09.068Z,28.23
2018-07-21T11:21:38.285Z,28.89
2018-07-21T11:24:07.540Z,27.48
2018-07-21T11:26:37.095Z,28.45
2018-07-21T11:29:06.266Z,28.39
2018-07-21T11:31:35.614Z,28.29
2018-07-21T11:34:04.951Z,28.71
2018-07-21T11:36:34.239Z,29.01
2018-07-21T11:39:03.631Z,28.18
2018-07-21T11:41:32.876Z,28.66
2018-07-21T11:44:02.138Z,28.80
2018-07-21T11:46:31.442Z,28.03
2018-07-21T11:49:00.752Z,27.67
2018-07-21T11:51:29.993Z,27.82
2018-07-21T11:53:59.264Z,27.48
2018-07-21T11:56:28.591Z,27.57
2018-07-21T11:58:57.939Z,27.30
2018-07-21T12:01:27.184Z,26.75
2018-07-21T12:03:56.347Z,26.86
2018-07-21T12:06:25.710Z,26.23
2018-07-21T12:08:54.972Z,27.26
2018-07-21T12:11:24.291Z,27.18
2018-07-21T12:13:53.583Z,27.38
2018-07-21T12:16:22.925Z,28.05
2018-07-21T12:18:52.150Z,27.54
2018-07-21T12:21:21.405Z,28.17
2018-07-21T12:23:50.663Z,28.68
2018-07-21T12:26:19.911Z,28.05
2018-07-21T12:28:49.157Z,27.75
2018-07-21T12:31:18.803Z,27.98
2018-07-21T12:33:48.102Z,27.77
2018-07-21T12:36:17.818Z,28.47
2018-07-21T12:38:47.313Z,29.39
2018-07-21T12:41:16.729Z,29.37
2018-07-21T12:43:45.990Z,29.97
2018-07-21T12:46:15.234Z,29.37
2018-07-21T12:48:44.502Z,29.07
2018-07-21T12:51:13.854Z,30.05
2018-07-21T12:53:43.129Z,29.57
2018-07-21T12:56:12.416Z,29.90
2018-07-21T12:58:41.739Z,29.12
2018-07-21T13:01:11.005Z,28.65
2018-07-21T13:03:40.223Z,28.34
2018-07-21T13:06:09.473Z,28.56
2018-07-21T13:08:38.727Z,29.21
2018-07-21T13:11:07.972Z,28.18
2018-07-21T13:13:37.273Z,27.84
2018-07-21T13:16:06.588Z,28.10
2018-07-21T13:18:35.822Z,28.13
2018-07-21T13:21:05.084Z,28.29
2018-07-21T13:23:34.423Z,28.80
2018-07-21T13:26:03.791Z,29.90
2018-07-21T13:28:33.413Z,28.50
2018-07-21T13:31:02.636Z,28.19
2018-07-21T13:33:32.034Z,28.02
2018-07-21T13:36:01.305Z,28.80
2018-07-21T13:38:30.301Z,28.40
2018-07-21T13:40:59.233Z,27.85
2018-07-21T13:43:28.222Z,27.49
2018-07-21T13:45:57.456Z,28.51
2018-07-21T13:48:26.831Z,28.15
2018-07-21T13:50:56.055Z,28.06
2018-07-21T13:53:25.293Z,27.61
2018-07-21T13:55:54.561Z,27.12
2018-07-21T13:58:23.910Z,27.98
2018-07-21T14:00:53.171Z,27.76
2018-07-21T14:03:22.433Z,27.86
2018-07-21T14:05:51.687Z,27.53
2018-07-21T14:08:20.923Z,28.13
2018-07-21T14:10:50.161Z,27.53
2018-07-21T14:13:19.390Z,27.25
2018-07-21T14:15:48.736Z,27.89
2018-07-21T14:18:18.133Z,28.57
2018-07-21T14:20:47.393Z,28.10
2018-07-21T14:23:16.652Z,27.85
2018-07-21T14:25:45.878Z,28.66
2018-07-21T14:28:15.377Z,28.89
2018-07-21T14:30:44.572Z,28.99
2018-07-21T14:33:13.818Z,28.26
2018-07-21T14:35:43.263Z,29.31
2018-07-21T14:38:12.621Z,29.77
2018-07-21T14:40:41.880Z,30.30
2018-07-21T14:43:11.238Z,30.48
2018-07-21T14:45:40.478Z,29.99
2018-07-21T14:48:09.931Z,29.19
2018-07-21T14:50:39.696Z,29.30
2018-07-21T14:53:08.941Z,29.65
2018-07-21T14:55:38.241Z,30.24
2018-07-21T14:58:07.641Z,29.74
2018-07-21T15:00:37.217Z,28.35
2018-07-21T15:03:06.578Z,28.04
2018-07-21T15:05:35.794Z,28.51
2018-07-21T15:08:05.166Z,28.27
2018-07-21T15:10:34.415Z,27.85
2018-07-21T15:13:03.666Z,28.57
2018-07-21T15:15:32.914Z,28.93
2018-07-21T15:18:02.156Z,28.76
2018-07-21T15:20:31.403Z,28.02
2018-07-21T15:23:00.659Z,27.86
2018-07-21T15:25:29.889Z,27.30
2018-07-21T15:27:59.230Z,27.91
2018-07-21T15:30:28.406Z,27.77
2018-07-21T15:32:57.633Z,26.72
2018-07-21T15:35:26.813Z,27.23
2018-07-21T15:37:56.149Z,27.46
2018-07-21T15:40:25.556Z,27.04
2018-07-21T15:42:54.862Z,27.33
2018-07-21T15:45:24.106Z,26.66
2018-07-21T15:47:53.503Z,26.75
2018-07-21T15:50:22.803Z,26.84
2018-07-21T15:52:52.174Z,26.88
2018-07-21T15:55:22.067Z,27.05
2018-07-21T15:57:51.681Z,26.97
2018-07-21T16:00:21.614Z,26.57
2018-07-21T16:02:50.928Z,26.43
2018-07-21T16:05:20.162Z,26.74
2018-07-21T16:07:49.418Z,27.61
2018-07-21T16:10:18.761Z,27.54
2018-07-21T16:12:48.109Z,27.95
2018-07-21T16:15:17.519Z,28.10
2018-07-21T16:17:46.915Z,28.30
2018-07-21T16:20:16.174Z,28.27
2018-07-21T16:22:45.651Z,28.07
2018-07-21T16:25:14.883Z,28.20
2018-07-21T16:27:44.165Z,28.34
2018-07-21T16:30:13.499Z,27.82
2018-07-21T16:32:42.793Z,27.73
2018-07-21T16:35:12.091Z,27.52
2018-07-21T16:37:41.250Z,27.09
2018-07-21T16:40:10.512Z,27.39
2018-07-21T16:42:39.760Z,27.65
2018-07-21T16:45:08.995Z,27.81
2018-07-21T16:47:38.254Z,27.76
2018-07-21T16:50:07.500Z,27.60
2018-07-21T16:52:36.757Z,27.56
2018-07-21T16:55:05.897Z,27.33
2018-07-21T16:57:35.154Z,27.11
2018-07-21T17:00:04.511Z,27.27
2018-07-21T17:02:33.772Z,27.56
2018-07-21T17:05:03.088Z,27.17
2018-07-21T17:07:32.811Z,27.30
2018-07-21T17:10:02.217Z,27.30
2018-07-21T17:12:31.482Z,27.22
2018-07-21T17:15:00.722Z,27.47
2018-07-21T17:17:30.000Z,27.62
2018-07-21T17:19:59.321Z,27.50
2018-07-21T17:22:28.563Z,27.51
2018-07-21T17:24:57.636Z,27.12
2018-07-21T17:27:26.853Z,27.31
2018-07-21T17:29:56.137Z,27.42
2018-07-21T17:32:25.362Z,27.52
2018-07-21T17:34:54.631Z,27.74
2018-07-21T17:37:23.898Z,27.58
2018-07-21T17:39:53.311Z,27.19
2018-07-21T17:42:22.693Z,27.17
2018-07-21T17:44:51.954Z,27.10
2018-07-21T17:47:21.173Z,27.24
2018-07-21T17:49:50.422Z,27.38
2018-07-21T17:52:19.744Z,27.17
2018-07-21T17:54:49.123Z,27.31
2018-07-21T17:57:18.360Z,27.35
2018-07-21T17:59:47.720Z,26.79
2018-07-21T18:02:17.078Z,26.06
2018-07-21T18:04:46.307Z,26.05
2018-07-21T18:07:15.592Z,26.00
2018-07-21T18:09:44.811Z,26.16
2018-07-21T18:12:13.963Z,26.17
2018-07-21T18:14:43.399Z,25.86
2018-07-21T18:17:12.720Z,26.25
2018-07-21T18:19:42.123Z,26.52
2018-07-21T18:22:11.370Z,26.66
2018-07-21T18:24:40.616Z,26.54
2018-07-21T18:27:09.907Z,26.74
2018-07-21T18:29:39.220Z,26.83
2018-07-21T18:32:08.486Z,26.87
2018-07-21T18:34:37.740Z,26.93
2018-07-21T18:37:06.985Z,26.90
2018-07-21T18:39:36.219Z,26.99
2018-07-21T18:42:05.464Z,26.86
2018-07-21T18:44:34.797Z,26.61
2018-07-21T18:47:04.083Z,26.13
2018-07-21T18:49:33.201Z,26.13
2018-07-21T18:52:02.517Z,25.96
2018-07-21T18:54:31.931Z,25.82
2018-07-21T18:57:01.200Z,25.54
2018-07-21T18:59:30.427Z,25.71
2018-07-21T19:01:59.670Z,26.02
2018-07-21T19:04:29.061Z,26.28
2018-07-21T19:06:58.260Z,26.36
2018-07-21T19:09:27.610Z,26.52
2018-07-21T19:13:03.989Z,26.60
2018-07-21T19:15:38.167Z,26.58
2018-07-21T19:18:07.354Z,26.60
2018-07-21T19:20:41.502Z,26.57
2018-07-21T19:23:11.061Z,26.62
2018-07-21T19:25:45.462Z,26.64
2018-07-21T19:28:14.749Z,26.62
2018-07-21T19:30:44.154Z,26.21
2018-07-21T19:33:13.410Z,26.06
2018-07-21T19:35:42.645Z,26.05
2018-07-21T19:38:12.012Z,26.09
2018-07-21T19:40:41.341Z,26.13
2018-07-21T19:43:10.706Z,26.16
2018-07-21T19:45:39.946Z,26.15
2018-07-21T19:48:09.201Z,26.14
2018-07-21T19:50:38.430Z,26.16
2018-07-21T19:53:07.712Z,26.05
2018-07-21T19:55:37.049Z,25.91
2018-07-21T19:58:06.375Z,25.91
2018-07-21T20:00:35.789Z,25.96
2018-07-21T20:03:05.139Z,25.92
2018-07-21T20:05:34.521Z,25.94
2018-07-21T20:08:03.702Z,25.94
2018-07-21T20:10:32.950Z,25.94
2018-07-21T20:13:02.205Z,25.80
2018-07-21T20:15:31.454Z,25.84
2018-07-21T20:18:00.749Z,25.84
2018-07-21T20:20:30.090Z,25.86
2018-07-21T20:22:59.346Z,25.87
2018-07-21T20:25:28.662Z,25.74
2018-07-21T20:27:57.910Z,25.63
2018-07-21T20:30:27.737Z,24.80
2018-07-21T20:32:57.173Z,24.79
2018-07-21T20:35:26.462Z,24.88
2018-07-21T20:37:55.766Z,24.97
2018-07-21T20:40:25.188Z,24.89
2018-07-21T20:42:54.667Z,24.70
2018-07-21T20:45:23.966Z,24.61
2018-07-21T20:47:53.239Z,24.70
2018-07-21T20:50:22.493Z,24.44
2018-07-21T20:52:51.747Z,24.30
2018-07-21T20:55:20.970Z,24.42
2018-07-21T20:57:50.231Z,24.49
2018-07-21T21:00:19.503Z,24.51
2018-07-21T21:02:48.781Z,24.33
2018-07-21T21:05:18.110Z,24.21
2018-07-21T21:07:47.461Z,24.13
2018-07-21T21:10:16.689Z,23.86
2018-07-21T21:12:46.066Z,23.57
2018-07-21T21:15:15.280Z,23.35
2018-07-21T21:17:44.531Z,23.56
2018-07-21T21:20:13.769Z,23.72
2018-07-21T21:22:43.062Z,23.81
2018-07-21T21:25:12.383Z,23.83
2018-07-21T21:27:41.675Z,23.87
2018-07-21T21:30:11.110Z,23.92
2018-07-21T21:32:40.365Z,23.96
2018-07-21T21:35:09.597Z,23.96
2018-07-21T21:37:38.551Z,23.93
2018-07-21T21:40:07.491Z,23.87
2018-07-21T21:42:36.717Z,23.88
2018-07-21T21:45:06.063Z,23.88
2018-07-21T21:47:35.486Z,23.89
2018-07-21T21:50:04.843Z,23.90
2018-07-21T21:52:34.073Z,23.89
2018-07-21T21:55:03.341Z,23.91
2018-07-21T21:57:32.691Z,23.90
2018-07-21T22:00:02.000Z,23.90
2018-07-21T22:02:31.376Z,23.88
2018-07-21T22:05:00.391Z,23.82
2018-07-21T22:07:29.776Z,23.63
2018-07-21T22:09:59.070Z,23.50
2018-07-21T22:12:28.714Z,23.38
2018-07-21T22:14:58.116Z,23.38
2018-07-21T22:17:27.500Z,23.38
2018-07-21T22:19:56.753Z,23.39
2018-07-21T22:22:25.976Z,23.39
2018-07-21T22:24:55.517Z,23.27
2018-07-21T22:27:24.779Z,23.18
2018-07-21T22:29:53.970Z,23.05
2018-07-21T22:32:23.328Z,22.83
2018-07-21T22:34:52.591Z,22.73
2018-07-21T22:37:21.910Z,22.81
2018-07-21T22:39:51.274Z,22.90
2018-07-21T22:42:20.519Z,22.88
2018-07-21T22:44:49.756Z,22.89
2018-07-21T22:47:19.326Z,22.61
2018-07-21T22:49:48.813Z,22.38
2018-07-21T22:52:18.102Z,22.25
2018-07-21T22:54:47.573Z,22.22
2018-07-21T22:57:17.024Z,22.33
2018-07-21T22:59:46.402Z,22.20
2018-07-21T23:02:15.731Z,21.99
2018-07-21T23:04:45.071Z,22.08
2018-07-21T23:07:14.318Z,22.20
2018-07-21T23:09:43.586Z,22.30
2018-07-21T23:12:12.813Z,22.16
2018-07-21T23:14:42.098Z,21.87
2018-07-21T23:17:11.638Z,21.84
2018-07-21T23:19:41.030Z,21.99
2018-07-21T23:22:10.434Z,22.06
2018-07-21T23:24:39.753Z,21.97
2018-07-21T23:27:09.042Z,21.84
2018-07-21T23:29:38.301Z,21.95
2018-07-21T23:32:07.539Z,21.88
2018-07-21T23:34:36.903Z,21.95
2018-07-21T23:37:06.149Z,22.06
2018-07-21T23:39:35.404Z,22.13
2018-07-21T23:42:04.644Z,22.20
2018-07-21T23:44:34.017Z,22.22
2018-07-21T23:47:03.233Z,22.27
2018-07-21T23:49:32.221Z,22.30
2018-07-21T23:52:01.205Z,22.16
2018-07-21T23:54:30.110Z,21.82
2018-07-21T23:56:59.100Z,21.76
2018-07-21T23:59:28.030Z,21.47
